F/V Renaissance II — FMEW — position and weather

sailwx.info

Track history (hours):
 
Tides and Currents Weather Stations Pressure Air Temp Water Temp Dewpoint Dewpoint Depression Visibility Wind Speed Wind Dir Waves Ship Positions

F/V Renaissance II

Last reported at 2014-Jul-30 08:33 UTC. Time now 2014-Jul-30 09:04 UTC.
Position N 46°30' W 002°03'.

Length 18 m.

Type: Fishing. MMSI: 228216600.

Date/timePositionNaut miles runAvg speedWind from/ knotsBaromVisibWave heightAir tempDewpointWater temp
2014-Jul-30 08:33N 46°30' W 002°03'3 2.7
2014-Jul-30 07:33N 46°33' W 002°03'0 0.3
2014-Jul-30 06:33N 46°33' W 002°03'1 0.5
2014-Jul-30 05:33N 46°33' W 002°03'8 7.6
2014-Jul-30 04:34N 46°30' W 001°53'4 3.9
2014-Jul-30 03:33N 46°30' W 001°47'0 0.0
2014-Jul-30 02:33N 46°30' W 001°47'0 0.0
2014-Jul-30 01:33N 46°30' W 001°47'0 0.0
2014-Jul-30 00:33N 46°30' W 001°47'0 0.0
2014-Jul-29 23:33N 46°30' W 001°47'0 0.0
2014-Jul-29 22:33N 46°30' W 001°47'0 0.0
2014-Jul-29 21:33N 46°30' W 001°47'0 0.0
2014-Jul-29 20:33N 46°30' W 001°47'0 0.0
2014-Jul-29 19:33N 46°30' W 001°47'0 0.0
2014-Jul-29 18:33N 46°30' W 001°47'0 0.0
2014-Jul-29 17:34N 46°30' W 001°47'0 0.0
2014-Jul-29 16:33N 46°30' W 001°47'0 0.0
2014-Jul-29 15:33N 46°30' W 001°47'0 0.2
2014-Jul-29 14:34N 46°30' W 001°47'5 4.7
2014-Jul-29 13:33N 46°28' W 001°53'1 0.8
2014-Jul-29 12:33N 46°29' W 001°54'4 4.5
2014-Jul-29 11:33N 46°24' W 001°53'3 2.8
2014-Jul-29 10:33N 46°21' W 001°52'4 3.5
2014-Jul-29 09:33N 46°19' W 001°48'11 3.8
2014-Jul-29 06:33N 46°10' W 001°37'1 1.5
2014-Jul-29 05:33N 46°10' W 001°35'9 9.0
2014-Jul-29 04:33N 46°18' W 001°41'1010.1
2014-Jul-29 03:33N 46°28' W 001°46'2 2.4
2014-Jul-29 02:33N 46°30' W 001°47'0 0.0
2014-Jul-29 01:34N 46°30' W 001°47'0 0.0
2014-Jul-29 00:33N 46°30' W 001°47'0 0.0
2014-Jul-28 23:33N 46°30' W 001°47'0 0.0
2014-Jul-28 22:33N 46°30' W 001°47'0 0.0
2014-Jul-28 21:33N 46°30' W 001°47'0 0.0
2014-Jul-28 20:33N 46°30' W 001°47'0 0.0
2014-Jul-28 19:33N 46°30' W 001°47'0 0.0
2014-Jul-28 18:33N 46°30' W 001°47'4 3.7
2014-Jul-28 17:34N 46°26' W 001°46'9 9.1
2014-Jul-28 16:33N 46°18' W 001°40'8 2.0
2014-Jul-28 12:33N 46°10' W 001°37'1 0.6
2014-Jul-28 11:13N 46°11' W 001°36'0 0.1
2014-Jul-28 08:26N 46°11' W 001°37'0 0.4
2014-Jul-28 07:07N 46°11' W 001°36'2 1.1
2014-Jul-28 05:29N 46°12' W 001°38'9 9.2
2014-Jul-28 04:33N 46°20' W 001°42'9 9.2
2014-Jul-28 03:33N 46°29' W 001°47'1 1.4
2014-Jul-28 02:33N 46°30' W 001°48'0 0.0
2014-Jul-28 01:34N 46°30' W 001°48'0 0.0
2014-Jul-28 00:34N 46°30' W 001°48'0 0.0
2014-Jul-27 23:33N 46°30' W 001°48'0 0.0
2014-Jul-27 22:33N 46°30' W 001°48'0 0.0
2014-Jul-27 21:33N 46°30' W 001°48'0 0.0
2014-Jul-27 20:33N 46°30' W 001°48'0 0.0
2014-Jul-27 19:33N 46°30' W 001°48'0 0.3
2014-Jul-27 18:33N 46°30' W 001°47'7 7.2
2014-Jul-27 17:34N 46°23' W 001°43'9 9.2
2014-Jul-27 16:33N 46°15' W 001°38'5 5.1
2014-Jul-27 15:33N 46°10' W 001°35'1 1.2
2014-Jul-27 14:33N 46°11' W 001°37'1 1.3
2014-Jul-27 13:33N 46°10' W 001°36'1 1.1
2014-Jul-27 12:33N 46°10' W 001°37'0 0.4
2014-Jul-27 11:33N 46°11' W 001°37'0 0.3
2014-Jul-27 10:33N 46°10' W 001°37'2 1.4
2014-Jul-27 09:30N 46°10' W 001°35'2 1.3
2014-Jul-27 08:16N 46°10' W 001°37'0 0.4
2014-Jul-27 07:33N 46°10' W 001°38'1 1.2
2014-Jul-27 06:30N 46°10' W 001°36'1 1.4
2014-Jul-27 05:33N 46°10' W 001°38'8 8.6
2014-Jul-27 04:34N 46°18' W 001°41'10 9.5
2014-Jul-27 03:33N 46°27' W 001°46'3 3.0
2014-Jul-27 02:33N 46°30' W 001°48'0 0.0
2014-Jul-27 01:33N 46°30' W 001°48'0 0.0
2014-Jul-27 00:33N 46°30' W 001°48'0 0.0
2014-Jul-26 23:33N 46°30' W 001°48'0 0.0
2014-Jul-26 22:34N 46°30' W 001°48'0 0.0
2014-Jul-26 21:33N 46°30' W 001°48'0 0.0
2014-Jul-26 20:34N 46°30' W 001°48'0 0.0
2014-Jul-26 19:34N 46°30' W 001°48'0 0.0
2014-Jul-26 18:33N 46°30' W 001°48'0 0.2
2014-Jul-26 17:33N 46°30' W 001°47'0 0.3
2014-Jul-26 16:33N 46°30' W 001°48'1 0.6
2014-Jul-26 15:34N 46°29' W 001°47'3 3.2
2014-Jul-26 14:33N 46°28' W 001°52'2 2.3
2014-Jul-26 13:33N 46°28' W 001°55'0 0.5
2014-Jul-26 12:33N 46°28' W 001°56'0 0.5
2014-Jul-26 11:34N 46°28' W 001°56'6 6.1
2014-Jul-26 10:33N 46°25' W 001°49'3 3.2
2014-Jul-26 09:33N 46°23' W 001°45'3 3.0
2014-Jul-26 08:34N 46°21' W 001°49'1 0.6
2014-Jul-26 07:33N 46°21' W 001°49'2 1.5
2014-Jul-26 06:33N 46°21' W 001°47'1 1.4
2014-Jul-26 05:34N 46°23' W 001°46'6 6.2
2014-Jul-26 04:34N 46°26' W 001°53'9 9.1
2014-Jul-26 03:33N 46°33' W 002°01'9 9.1
2014-Jul-26 02:33N 46°40' W 002°09'26 4.0
2014-Jul-25 20:12N 47°03' W 002°26'2 2.7
2014-Jul-25 19:33N 47°02' W 002°28'4 4.4
2014-Jul-25 18:33N 46°59' W 002°33'3 0.3
2014-Jul-25 08:31N 47°02' W 002°30'11 4.5
2014-Jul-25 06:09N 46°52' W 002°24'7 9.7
2014-Jul-25 05:26N 46°47' W 002°17'8 9.3
2014-Jul-25 04:33N 46°41' W 002°10'9 9.6
2014-Jul-25 03:33N 46°34' W 001°59'10 9.5
2014-Jul-25 02:33N 46°29' W 001°48'1 1.4
2014-Jul-25 01:33N 46°30' W 001°47'0 0.1
2014-Jul-25 00:33N 46°30' W 001°47'0 0.0
2014-Jul-24 23:33N 46°30' W 001°47'0 0.0
2014-Jul-24 22:33N 46°30' W 001°47'0 0.0
2014-Jul-24 21:33N 46°30' W 001°47'0 0.0
2014-Jul-24 20:33N 46°30' W 001°47'0 0.0
2014-Jul-24 19:33N 46°30' W 001°47'0 0.0
2014-Jul-24 18:33N 46°30' W 001°47'5 5.2
2014-Jul-24 17:34N 46°25' W 001°49'9 8.7
2014-Jul-24 16:34N 46°17' W 001°53'2 2.3
2014-Jul-24 15:33N 46°15' W 001°55'2 2.5
2014-Jul-24 14:33N 46°12' W 001°56'2 1.8
2014-Jul-24 13:33N 46°13' W 001°57'4 4.4
2014-Jul-24 12:33N 46°11' W 001°52'1 1.0
2014-Jul-24 11:33N 46°10' W 001°53'7 7.2
2014-Jul-24 10:33N 46°11' W 001°42'2 1.4
2014-Jul-24 09:25N 46°09' W 001°43'5 6.0
2014-Jul-24 08:33N 46°14' W 001°44'1 1.4
2014-Jul-24 07:33N 46°16' W 001°44'1 0.9
2014-Jul-24 06:33N 46°15' W 001°44'1 0.6
2014-Jul-24 05:33N 46°15' W 001°43'6 6.0
2014-Jul-24 04:33N 46°21' W 001°42'8 8.2
2014-Jul-24 03:33N 46°28' W 001°47'1 1.5
2014-Jul-24 02:33N 46°30' W 001°47'0 0.0
2014-Jul-24 01:33N 46°30' W 001°47'0 0.0
2014-Jul-24 00:33N 46°30' W 001°47'0 0.0
2014-Jul-23 23:33N 46°30' W 001°47'0 0.0
2014-Jul-23 22:33N 46°30' W 001°47'0 0.0
2014-Jul-23 21:33N 46°30' W 001°47'0 0.0
2014-Jul-23 20:33N 46°30' W 001°47'0 0.0
2014-Jul-23 19:33N 46°30' W 001°47'0 0.0
2014-Jul-23 18:33N 46°30' W 001°47'0 0.0
2014-Jul-23 17:34N 46°30' W 001°47'0 0.0
2014-Jul-23 16:33N 46°30' W 001°47'0 0.0
2014-Jul-23 15:33N 46°30' W 001°47'0 0.0
2014-Jul-23 14:33N 46°30' W 001°47'0 0.0
2014-Jul-23 13:33N 46°30' W 001°47'1 0.7
2014-Jul-23 12:34N 46°29' W 001°47'1 0.8
2014-Jul-23 11:33N 46°30' W 001°47'0 0.0
2014-Jul-23 10:33N 46°30' W 001°47'0 0.0
2014-Jul-23 09:34N 46°30' W 001°47'  
Track history (hours):
 
Tides and Currents Weather Stations Pressure Air Temp Water Temp Dewpoint Dewpoint Depression Visibility Wind Speed Wind Dir Waves Ship Positions

F/V Renaissance II

Last reported at 2014-Jul-30 08:33 UTC. Time now 2014-Jul-30 09:04 UTC.
Position N 46°30' W 002°03'.

Length 18 m.

Type: Fishing. MMSI: 228216600.

Date/timePositionNaut miles runAvg speedWind from/ knotsBaromVisibWave heightAir tempDewpointWater temp
2014-Jul-30 08:33N 46°30' W 002°03'3 2.7
2014-Jul-30 07:33N 46°33' W 002°03'0 0.3
2014-Jul-30 06:33N 46°33' W 002°03'1 0.5
2014-Jul-30 05:33N 46°33' W 002°03'8 7.6
2014-Jul-30 04:34N 46°30' W 001°53'4 3.9
2014-Jul-30 03:33N 46°30' W 001°47'0 0.0
2014-Jul-30 02:33N 46°30' W 001°47'0 0.0
2014-Jul-30 01:33N 46°30' W 001°47'0 0.0
2014-Jul-30 00:33N 46°30' W 001°47'0 0.0
2014-Jul-29 23:33N 46°30' W 001°47'0 0.0
2014-Jul-29 22:33N 46°30' W 001°47'0 0.0
2014-Jul-29 21:33N 46°30' W 001°47'0 0.0
2014-Jul-29 20:33N 46°30' W 001°47'0 0.0
2014-Jul-29 19:33N 46°30' W 001°47'0 0.0
2014-Jul-29 18:33N 46°30' W 001°47'0 0.0
2014-Jul-29 17:34N 46°30' W 001°47'0 0.0
2014-Jul-29 16:33N 46°30' W 001°47'0 0.0
2014-Jul-29 15:33N 46°30' W 001°47'0 0.2
2014-Jul-29 14:34N 46°30' W 001°47'5 4.7
2014-Jul-29 13:33N 46°28' W 001°53'1 0.8
2014-Jul-29 12:33N 46°29' W 001°54'4 4.5
2014-Jul-29 11:33N 46°24' W 001°53'3 2.8
2014-Jul-29 10:33N 46°21' W 001°52'4 3.5
2014-Jul-29 09:33N 46°19' W 001°48'11 3.8
2014-Jul-29 06:33N 46°10' W 001°37'1 1.5
2014-Jul-29 05:33N 46°10' W 001°35'9 9.0
2014-Jul-29 04:33N 46°18' W 001°41'1010.1
2014-Jul-29 03:33N 46°28' W 001°46'2 2.4
2014-Jul-29 02:33N 46°30' W 001°47'0 0.0
2014-Jul-29 01:34N 46°30' W 001°47'0 0.0
2014-Jul-29 00:33N 46°30' W 001°47'0 0.0
2014-Jul-28 23:33N 46°30' W 001°47'0 0.0
2014-Jul-28 22:33N 46°30' W 001°47'0 0.0
2014-Jul-28 21:33N 46°30' W 001°47'0 0.0
2014-Jul-28 20:33N 46°30' W 001°47'0 0.0
2014-Jul-28 19:33N 46°30' W 001°47'0 0.0
2014-Jul-28 18:33N 46°30' W 001°47'4 3.7
2014-Jul-28 17:34N 46°26' W 001°46'9 9.1
2014-Jul-28 16:33N 46°18' W 001°40'8 2.0
2014-Jul-28 12:33N 46°10' W 001°37'1 0.6
2014-Jul-28 11:13N 46°11' W 001°36'0 0.1
2014-Jul-28 08:26N 46°11' W 001°37'0 0.4
2014-Jul-28 07:07N 46°11' W 001°36'2 1.1
2014-Jul-28 05:29N 46°12' W 001°38'9 9.2
2014-Jul-28 04:33N 46°20' W 001°42'9 9.2
2014-Jul-28 03:33N 46°29' W 001°47'1 1.4
2014-Jul-28 02:33N 46°30' W 001°48'0 0.0
2014-Jul-28 01:34N 46°30' W 001°48'0 0.0
2014-Jul-28 00:34N 46°30' W 001°48'0 0.0
2014-Jul-27 23:33N 46°30' W 001°48'0 0.0
2014-Jul-27 22:33N 46°30' W 001°48'0 0.0
2014-Jul-27 21:33N 46°30' W 001°48'0 0.0
2014-Jul-27 20:33N 46°30' W 001°48'0 0.0
2014-Jul-27 19:33N 46°30' W 001°48'0 0.3
2014-Jul-27 18:33N 46°30' W 001°47'7 7.2
2014-Jul-27 17:34N 46°23' W 001°43'9 9.2
2014-Jul-27 16:33N 46°15' W 001°38'5 5.1
2014-Jul-27 15:33N 46°10' W 001°35'1 1.2
2014-Jul-27 14:33N 46°11' W 001°37'1 1.3
2014-Jul-27 13:33N 46°10' W 001°36'1 1.1
2014-Jul-27 12:33N 46°10' W 001°37'0 0.4
2014-Jul-27 11:33N 46°11' W 001°37'0 0.3
2014-Jul-27 10:33N 46°10' W 001°37'2 1.4
2014-Jul-27 09:30N 46°10' W 001°35'2 1.3
2014-Jul-27 08:16N 46°10' W 001°37'0 0.4
2014-Jul-27 07:33N 46°10' W 001°38'1 1.2
2014-Jul-27 06:30N 46°10' W 001°36'1 1.4
2014-Jul-27 05:33N 46°10' W 001°38'8 8.6
2014-Jul-27 04:34N 46°18' W 001°41'10 9.5
2014-Jul-27 03:33N 46°27' W 001°46'3 3.0
2014-Jul-27 02:33N 46°30' W 001°48'0 0.0
2014-Jul-27 01:33N 46°30' W 001°48'0 0.0
2014-Jul-27 00:33N 46°30' W 001°48'0 0.0
2014-Jul-26 23:33N 46°30' W 001°48'0 0.0
2014-Jul-26 22:34N 46°30' W 001°48'0 0.0
2014-Jul-26 21:33N 46°30' W 001°48'0 0.0
2014-Jul-26 20:34N 46°30' W 001°48'0 0.0
2014-Jul-26 19:34N 46°30' W 001°48'0 0.0
2014-Jul-26 18:33N 46°30' W 001°48'0 0.2
2014-Jul-26 17:33N 46°30' W 001°47'0 0.3
2014-Jul-26 16:33N 46°30' W 001°48'1 0.6
2014-Jul-26 15:34N 46°29' W 001°47'3 3.2
2014-Jul-26 14:33N 46°28' W 001°52'2 2.3
2014-Jul-26 13:33N 46°28' W 001°55'0 0.5
2014-Jul-26 12:33N 46°28' W 001°56'0 0.5
2014-Jul-26 11:34N 46°28' W 001°56'6 6.1
2014-Jul-26 10:33N 46°25' W 001°49'3 3.2
2014-Jul-26 09:33N 46°23' W 001°45'3 3.0
2014-Jul-26 08:34N 46°21' W 001°49'1 0.6
2014-Jul-26 07:33N 46°21' W 001°49'2 1.5
2014-Jul-26 06:33N 46°21' W 001°47'1 1.4
2014-Jul-26 05:34N 46°23' W 001°46'6 6.2
2014-Jul-26 04:34N 46°26' W 001°53'9 9.1
2014-Jul-26 03:33N 46°33' W 002°01'9 9.1
2014-Jul-26 02:33N 46°40' W 002°09'26 4.0
2014-Jul-25 20:12N 47°03' W 002°26'2 2.7
2014-Jul-25 19:33N 47°02' W 002°28'4 4.4
2014-Jul-25 18:33N 46°59' W 002°33'3 0.3
2014-Jul-25 08:31N 47°02' W 002°30'11 4.5
2014-Jul-25 06:09N 46°52' W 002°24'7 9.7
2014-Jul-25 05:26N 46°47' W 002°17'8 9.3
2014-Jul-25 04:33N 46°41' W 002°10'9 9.6
2014-Jul-25 03:33N 46°34' W 001°59'10 9.5
2014-Jul-25 02:33N 46°29' W 001°48'1 1.4
2014-Jul-25 01:33N 46°30' W 001°47'0 0.1
2014-Jul-25 00:33N 46°30' W 001°47'0 0.0
2014-Jul-24 23:33N 46°30' W 001°47'0 0.0
2014-Jul-24 22:33N 46°30' W 001°47'0 0.0
2014-Jul-24 21:33N 46°30' W 001°47'0 0.0
2014-Jul-24 20:33N 46°30' W 001°47'0 0.0
2014-Jul-24 19:33N 46°30' W 001°47'0 0.0
2014-Jul-24 18:33N 46°30' W 001°47'5 5.2
2014-Jul-24 17:34N 46°25' W 001°49'9 8.7
2014-Jul-24 16:34N 46°17' W 001°53'2 2.3
2014-Jul-24 15:33N 46°15' W 001°55'2 2.5
2014-Jul-24 14:33N 46°12' W 001°56'2 1.8
2014-Jul-24 13:33N 46°13' W 001°57'4 4.4
2014-Jul-24 12:33N 46°11' W 001°52'1 1.0
2014-Jul-24 11:33N 46°10' W 001°53'7 7.2
2014-Jul-24 10:33N 46°11' W 001°42'2 1.4
2014-Jul-24 09:25N 46°09' W 001°43'5 6.0
2014-Jul-24 08:33N 46°14' W 001°44'1 1.4
2014-Jul-24 07:33N 46°16' W 001°44'1 0.9
2014-Jul-24 06:33N 46°15' W 001°44'1 0.6
2014-Jul-24 05:33N 46°15' W 001°43'6 6.0
2014-Jul-24 04:33N 46°21' W 001°42'8 8.2
2014-Jul-24 03:33N 46°28' W 001°47'1 1.5
2014-Jul-24 02:33N 46°30' W 001°47'0 0.0
2014-Jul-24 01:33N 46°30' W 001°47'0 0.0
2014-Jul-24 00:33N 46°30' W 001°47'0 0.0
2014-Jul-23 23:33N 46°30' W 001°47'0 0.0
2014-Jul-23 22:33N 46°30' W 001°47'0 0.0
2014-Jul-23 21:33N 46°30' W 001°47'0 0.0
2014-Jul-23 20:33N 46°30' W 001°47'0 0.0
2014-Jul-23 19:33N 46°30' W 001°47'0 0.0
2014-Jul-23 18:33N 46°30' W 001°47'0 0.0
2014-Jul-23 17:34N 46°30' W 001°47'0 0.0
2014-Jul-23 16:33N 46°30' W 001°47'0 0.0
2014-Jul-23 15:33N 46°30' W 001°47'0 0.0
2014-Jul-23 14:33N 46°30' W 001°47'0 0.0
2014-Jul-23 13:33N 46°30' W 001°47'1 0.7
2014-Jul-23 12:34N 46°29' W 001°47'1 0.8
2014-Jul-23 11:33N 46°30' W 001°47'0 0.0
2014-Jul-23 10:33N 46°30' W 001°47'0 0.0
2014-Jul-23 09:34N 46°30' W 001°47'  

Dump ship's entire track history